Alexandria, Indiana
Current Conditions -  °F | °C
As of 3:53 AM on Saturday 25 Oct 2014 (Local Time) from KMIE Reporting Station
Clear Clear  
Wind Chill: 53°   Ceiling: Unl
Heat Index: 53°   Visibility: 7mi
Dew Point: 49°   Wind: 7mph
Humidity: 86%   Direction: 220°SW
Pressure: 29.98"   Gusts: NA
Location:  40.26°N, 85.67°W
Report Text: KMIE 250753Z AUTO 22006KT 7SM CLR 12/09 A2998 RMK AO2 SLP148 T01170094
Loading
Personal Weather Stations






























Interactive Weather Map New forecast layout! Learn more

10-Day Weather Forecast

Advertisements
Track Severe Weather on mobile